Time;durP1;ratioP1;P1;durP2;ratioP2;P2;SDS_P1;SDS_P2;PMS_P1;PMS_P2;Temp;Humidity;BMP_temperature;BMP_pressure;BME280_temperature;BME280_humidity;BME280_pressure;Samples;Min_cycle;Max_cycle;Signal;HPM_P1;HPM_P2
2023/01/28 00:00:36;;;;;;;0.90;0.52;;;17.70;62.10;;;;;;5044001;28;20088;-70
2023/01/28 00:03:03;;;;;;;0.73;0.50;;;17.70;62.10;;;;;;5043282;28;20050;-70
2023/01/28 00:05:30;;;;;;;0.90;0.55;;;17.70;62.00;;;;;;5033212;28;20083;-70
2023/01/28 00:07:57;;;;;;;2.38;0.85;;;17.70;62.10;;;;;;5034886;28;20055;-70
2023/01/28 00:10:24;;;;;;;0.85;0.47;;;17.70;62.00;;;;;;5034182;28;20052;-70
2023/01/28 00:12:52;;;;;;;0.75;0.10;;;17.60;62.60;;;;;;5034494;28;20411;-70
2023/01/28 00:15:19;;;;;;;0.70;0.50;;;17.60;62.00;;;;;;5033093;28;20053;-70
2023/01/28 00:17:46;;;;;;;1.10;0.50;;;17.60;62.00;;;;;;5042467;28;20049;-70
2023/01/28 00:20:13;;;;;;;1.25;0.70;;;17.60;62.00;;;;;;5043702;28;20045;-70
2023/01/28 00:22:40;;;;;;;1.48;0.10;;;17.60;62.00;;;;;;5032988;28;20057;-70
2023/01/28 00:25:08;;;;;;;1.40;0.77;;;17.60;62.00;;;;;;5034724;28;20053;-70
2023/01/28 00:27:35;;;;;;;1.10;0.47;;;17.60;61.90;;;;;;5034207;28;20056;-70
2023/01/28 00:30:03;;;;;;;0.90;0.55;;;17.60;62.00;;;;;;5034006;28;20072;-70
2023/01/28 00:32:30;;;;;;;1.10;0.77;;;17.60;62.00;;;;;;5034170;28;20045;-70
2023/01/28 00:34:57;;;;;;;0.30;0.00;;;17.60;62.00;;;;;;5034198;28;20057;-70
2023/01/28 00:37:24;;;;;;;0.70;0.10;;;17.60;61.90;;;;;;5037439;28;20054;-70
2023/01/28 00:39:51;;;;;;;0.55;0.10;;;17.60;61.90;;;;;;5036679;28;20141;-70
2023/01/28 00:42:18;;;;;;;0.43;0.25;;;17.60;61.90;;;;;;5034253;28;20457;-70
2023/01/28 00:44:45;;;;;;;0.50;0.10;;;17.60;61.90;;;;;;5032722;28;20045;-70
2023/01/28 00:47:13;;;;;;;0.85;0.30;;;17.50;61.90;;;;;;5044624;28;20440;-70
2023/01/28 00:49:40;;;;;;;0.43;0.10;;;17.60;62.00;;;;;;5053560;28;20045;-70
2023/01/28 00:52:07;;;;;;;0.70;0.50;;;17.60;61.90;;;;;;5033193;28;20046;-70
2023/01/28 00:54:35;;;;;;;0.50;0.13;;;17.50;61.90;;;;;;5041498;28;20414;-70
2023/01/28 00:57:02;;;;;;;0.90;0.47;;;17.50;61.90;;;;;;5052611;28;20053;-70
2023/01/28 00:59:29;;;;;;;0.85;0.50;;;17.50;61.90;;;;;;5038323;28;20490;-70
2023/01/28 01:02:11;;;;;;;1.13;0.40;;;17.50;61.90;;;;;;5032281;28;20045;-71
2023/01/28 01:04:40;;;;;;;0.60;0.10;;;17.50;61.90;;;;;;5040385;28;20044;-70
2023/01/28 01:07:07;;;;;;;0.75;0.60;;;17.50;61.90;;;;;;5053326;28;20605;-70
2023/01/28 01:09:34;;;;;;;1.17;0.10;;;17.50;61.90;;;;;;5051589;28;20057;-70
2023/01/28 01:12:01;;;;;;;0.93;0.82;;;17.50;61.90;;;;;;5053445;28;20072;-70
2023/01/28 01:14:28;;;;;;;0.90;0.65;;;17.50;61.90;;;;;;5051617;28;20053;-70
2023/01/28 01:16:55;;;;;;;1.00;0.10;;;17.50;61.90;;;;;;5044801;28;20068;-70
2023/01/28 01:19:21;;;;;;;1.10;0.80;;;17.50;61.80;;;;;;5031871;28;20053;-70
2023/01/28 01:21:50;;;;;;;1.52;0.68;;;17.50;61.90;;;;;;5032143;28;20049;-70
2023/01/28 01:24:17;;;;;;;0.70;0.10;;;17.40;61.80;;;;;;5033317;28;20371;-70
2023/01/28 01:26:44;;;;;;;0.90;0.40;;;17.50;61.90;;;;;;5031526;28;20049;-70
2023/01/28 01:29:11;;;;;;;0.75;0.50;;;17.50;61.90;;;;;;5035340;28;20095;-70
2023/01/28 01:31:38;;;;;;;0.90;0.40;;;17.50;61.80;;;;;;5033032;28;20429;-70
2023/01/28 01:34:05;;;;;;;1.00;0.45;;;17.40;61.70;;;;;;5037073;28;20045;-71
2023/01/28 01:36:32;;;;;;;1.27;0.50;;;17.40;61.70;;;;;;5032143;28;20392;-70
2023/01/28 01:39:00;;;;;;;0.60;0.10;;;17.40;61.70;;;;;;5032825;28;20092;-70
2023/01/28 01:41:29;;;;;;;0.73;0.10;;;17.40;61.80;;;;;;5032857;28;20051;-70
2023/01/28 01:43:58;;;;;;;1.60;0.80;;;17.40;61.80;;;;;;5032514;28;20056;-70
2023/01/28 01:46:32;;;;;;;0.82;0.13;;;17.40;61.70;;;;;;5033879;28;20059;-70
2023/01/28 01:49:07;;;;;;;0.45;0.05;;;17.40;61.70;;;;;;5031603;28;20057;-70
2023/01/28 01:51:36;;;;;;;0.57;0.10;;;17.40;61.70;;;;;;5032537;28;20139;-70
2023/01/28 01:54:05;;;;;;;1.00;0.47;;;17.40;61.70;;;;;;5033529;28;20046;-70
2023/01/28 01:56:38;;;;;;;1.02;0.70;;;17.40;61.80;;;;;;5051338;28;20544;-70
2023/01/28 01:59:11;;;;;;;0.63;0.10;;;17.40;61.70;;;;;;5052901;28;20045;-70
2023/01/28 02:01:38;;;;;;;0.50;0.10;;;17.40;61.70;;;;;;5046093;28;20525;-70
2023/01/28 02:04:08;;;;;;;0.80;0.40;;;17.40;61.70;;;;;;5031674;28;20053;-70
2023/01/28 02:06:37;;;;;;;0.80;0.68;;;17.40;61.70;;;;;;5030824;28;20099;-70
2023/01/28 02:09:23;;;;;;;0.80;0.55;;;17.30;61.70;;;;;;5031988;28;20049;-70
2023/01/28 02:11:51;;;;;;;0.73;0.10;;;17.30;61.70;;;;;;5030658;28;20053;-70
2023/01/28 02:14:18;;;;;;;0.75;0.10;;;17.30;61.70;;;;;;5030899;28;20054;-70
2023/01/28 02:16:45;;;;;;;1.05;0.65;;;17.30;62.30;;;;;;5031103;28;20053;-70
2023/01/28 02:19:12;;;;;;;0.60;0.10;;;17.30;61.70;;;;;;5051625;28;20056;-70
2023/01/28 02:21:59;;;;;;;0.22;0.03;;;17.30;61.70;;;;;;5052223;28;20060;-70
2023/01/28 02:25:07;;;;;;;0.50;0.10;;;17.30;61.70;;;;;;5041859;28;20042;-70
2023/01/28 02:27:47;;;;;;;1.08;0.50;;;17.30;61.70;;;;;;5030835;28;20057;-70
2023/01/28 02:30:19;;;;;;;0.30;0.00;;;17.30;61.70;;;;;;5031775;28;20049;-70
2023/01/28 02:32:53;;;;;;;1.05;0.47;;;17.30;61.70;;;;;;5030702;28;20052;-70
2023/01/28 02:35:29;;;;;;;0.70;0.40;;;17.30;61.70;;;;;;5031981;28;20045;-70
2023/01/28 02:38:00;;;;;;;0.90;0.60;;;17.20;61.70;;;;;;5031900;28;20049;-70
2023/01/28 02:40:31;;;;;;;0.85;0.10;;;17.30;61.70;;;;;;5042697;28;20057;-70
2023/01/28 02:42:59;;;;;;;1.20;0.68;;;17.20;61.70;;;;;;5030735;28;20084;-70
2023/01/28 02:47:56;;;;;;;0.80;0.50;;;17.20;61.70;;;;;;5031575;28;20045;-70
2023/01/28 02:48:21;;;;;;;0.60;0.03;;;17.20;61.70;;;;;;5033775;28;20041;-71
2023/01/28 02:50:54;;;;;;;1.00;0.57;;;17.20;61.70;;;;;;5046109;28;20080;-70
2023/01/28 02:53:42;;;;;;;0.70;0.47;;;17.20;61.70;;;;;;5042369;28;20041;-70
2023/01/28 02:56:18;;;;;;;0.50;0.10;;;17.20;61.70;;;;;;5050285;28;20053;-70
2023/01/28 02:58:56;;;;;;;0.50;0.10;;;17.20;61.60;;;;;;5047859;28;20048;-70
2023/01/28 03:01:28;;;;;;;0.32;0.10;;;17.20;61.60;;;;;;5031443;28;20054;-70
2023/01/28 03:03:59;;;;;;;0.88;0.57;;;17.20;61.70;;;;;;5032250;28;20140;-70
2023/01/28 03:06:31;;;;;;;1.05;0.55;;;17.20;61.70;;;;;;5045365;28;20482;-70
2023/01/28 03:37:03;;;;;;;0.60;0.10;;;17.10;61.50;;;;;;5051068;28;20048;-70
2023/01/28 03:39:31;;;;;;;1.10;0.60;;;17.10;61.50;;;;;;5051455;28;20045;-70
2023/01/28 03:42:03;;;;;;;1.20;0.55;;;17.10;61.50;;;;;;5050805;28;20064;-70
2023/01/28 03:44:48;;;;;;;0.70;0.50;;;17.10;61.50;;;;;;5049929;28;20055;-70
2023/01/28 03:47:17;;;;;;;0.77;0.10;;;17.10;61.50;;;;;;5051298;28;20131;-70
2023/01/28 03:49:47;;;;;;;1.13;0.50;;;17.10;61.50;;;;;;5048056;28;20052;-70
2023/01/28 03:52:15;;;;;;;0.85;0.68;;;17.10;62.10;;;;;;5049580;28;20053;-70
2023/01/28 03:54:43;;;;;;;0.30;0.10;;;17.10;61.50;;;;;;5049817;28;20064;-70
2023/01/28 03:57:10;;;;;;;0.70;0.10;;;17.10;61.50;;;;;;5050762;28;20045;-70
2023/01/28 03:59:37;;;;;;;0.52;0.10;;;17.10;61.50;;;;;;5049610;28;20096;-70
2023/01/28 04:02:05;;;;;;;1.05;0.45;;;17.10;61.50;;;;;;5050777;28;20499;-70
2023/01/28 04:04:33;;;;;;;0.93;0.40;;;17.00;61.50;;;;;;5047780;28;20045;-69
2023/01/28 04:07:00;;;;;;;0.50;0.22;;;17.10;61.50;;;;;;5051014;28;20053;-70
2023/01/28 04:09:27;;;;;;;1.00;0.75;;;17.10;61.50;;;;;;5051477;28;20045;-70
2023/01/28 04:11:54;;;;;;;0.60;0.10;;;17.10;61.50;;;;;;5043429;28;20441;-70
2023/01/28 04:14:21;;;;;;;0.32;0.00;;;17.00;61.50;;;;;;5033712;28;20038;-70
2023/01/28 04:16:48;;;;;;;0.60;0.60;;;17.10;61.50;;;;;;5041975;28;20123;-70
2023/01/28 04:19:15;;;;;;;0.40;0.10;;;17.00;61.40;;;;;;5051019;28;20048;-70
2023/01/28 04:21:43;;;;;;;0.90;0.10;;;17.10;61.50;;;;;;5042865;28;20380;-69
2023/01/28 04:24:10;;;;;;;0.70;0.20;;;17.10;61.50;;;;;;5043384;28;20430;-70
2023/01/28 04:26:37;;;;;;;0.88;0.43;;;17.00;61.40;;;;;;5031568;28;20096;-69
2023/01/28 04:29:04;;;;;;;0.50;0.10;;;17.10;61.40;;;;;;5042807;28;20060;-70
2023/01/28 04:31:31;;;;;;;0.90;0.50;;;17.10;61.90;;;;;;5052833;28;20060;-70
2023/01/28 04:33:58;;;;;;;0.75;0.10;;;17.10;61.30;;;;;;5054072;28;20056;-70
2023/01/28 04:36:26;;;;;;;0.80;0.60;;;17.20;61.30;;;;;;5054374;28;20045;-70
2023/01/28 04:38:54;;;;;;;1.05;0.52;;;17.20;61.20;;;;;;5053965;28;20044;-69
2023/01/28 04:41:21;;;;;;;0.70;0.40;;;17.30;61.20;;;;;;5050918;28;20045;-70
2023/01/28 04:43:48;;;;;;;0.50;0.00;;;17.30;61.10;;;;;;5053593;28;20052;-69
2023/01/28 04:46:16;;;;;;;0.50;0.10;;;17.40;61.00;;;;;;5056128;28;20539;-69
2023/01/28 04:48:43;;;;;;;0.40;0.08;;;17.40;61.00;;;;;;5062626;28;20048;-69
2023/01/28 04:51:10;;;;;;;0.40;0.00;;;17.50;60.90;;;;;;5053627;28;20107;-70
2023/01/28 04:53:36;;;;;;;0.63;0.40;;;17.60;60.80;;;;;;5070771;28;20779;-69
2023/01/28 04:56:05;;;;;;;0.63;0.20;;;17.70;60.70;;;;;;5070613;28;20044;-69
2023/01/28 04:58:32;;;;;;;0.77;0.20;;;17.70;60.60;;;;;;5032724;28;20513;-69
2023/01/28 05:00:59;;;;;;;0.30;0.10;;;17.80;60.50;;;;;;5033705;28;20053;-69
2023/01/28 05:03:27;;;;;;;0.30;0.00;;;17.90;60.50;;;;;;5034096;28;20414;-69
2023/01/28 05:05:54;;;;;;;1.10;0.20;;;17.90;60.40;;;;;;5070236;28;20052;-70
2023/01/28 05:08:21;;;;;;;0.65;0.10;;;18.00;60.40;;;;;;5073556;28;20059;-69
2023/01/28 05:10:47;;;;;;;1.25;0.60;;;18.00;60.30;;;;;;5068755;28;20113;-69
2023/01/28 05:13:16;;;;;;;0.90;0.50;;;18.00;60.20;;;;;;5033280;28;20490;-70
2023/01/28 05:15:43;;;;;;;0.65;0.40;;;18.10;60.20;;;;;;5033498;28;20053;-70
2023/01/28 05:18:09;;;;;;;0.80;0.60;;;18.10;60.20;;;;;;5033519;28;20496;-70
2023/01/28 05:20:36;;;;;;;0.70;0.40;;;18.20;60.10;;;;;;5049928;28;20111;-70
2023/01/28 05:23:03;;;;;;;1.05;0.60;;;18.20;60.00;;;;;;5041757;28;20050;-70
2023/01/28 05:25:30;;;;;;;0.25;0.03;;;18.30;60.00;;;;;;5032128;28;20045;-70
2023/01/28 05:27:57;;;;;;;0.93;0.55;;;18.40;60.00;;;;;;5033111;28;20045;-70
2023/01/28 05:30:25;;;;;;;0.55;0.10;;;18.40;59.80;;;;;;5033247;28;20505;-70
2023/01/28 05:32:55;;;;;;;0.80;0.50;;;18.50;59.80;;;;;;5049094;28;20049;-70
2023/01/28 05:35:23;;;;;;;1.13;1.08;;;18.50;59.70;;;;;;5048585;28;20516;-70
2023/01/28 05:37:50;;;;;;;0.60;0.10;;;18.60;59.70;;;;;;5051369;28;20049;-70
2023/01/28 05:40:17;;;;;;;0.60;0.38;;;18.60;59.50;;;;;;5052436;28;20414;-70
2023/01/28 05:42:44;;;;;;;0.93;0.52;;;18.70;59.50;;;;;;5032234;28;20061;-70
2023/01/28 05:45:11;;;;;;;0.68;0.50;;;18.70;60.10;;;;;;5032589;28;20037;-70
2023/01/28 05:47:40;;;;;;;0.22;0.00;;;18.80;59.40;;;;;;5032984;28;20056;-70
2023/01/28 05:50:08;;;;;;;0.17;0.00;;;18.90;59.30;;;;;;5032997;28;20181;-70
2023/01/28 05:52:35;;;;;;;0.50;0.00;;;18.90;59.20;;;;;;5032458;28;20495;-70
2023/01/28 05:55:03;;;;;;;0.35;0.00;;;19.00;59.20;;;;;;5032489;28;20045;-70
2023/01/28 05:57:29;;;;;;;0.30;0.10;;;19.00;59.10;;;;;;5032600;28;20046;-70
2023/01/28 05:59:56;;;;;;;0.43;0.00;;;19.00;59.10;;;;;;5032474;28;20503;-70
2023/01/28 06:02:23;;;;;;;0.38;0.00;;;19.10;59.70;;;;;;5032971;28;20053;-70
2023/01/28 06:04:52;;;;;;;0.98;0.57;;;19.10;59.00;;;;;;5035162;28;20056;-69
2023/01/28 06:07:19;;;;;;;0.20;0.00;;;19.20;59.00;;;;;;5052372;28;20053;-69
2023/01/28 06:09:47;;;;;;;0.55;0.10;;;19.20;59.00;;;;;;5050507;28;20056;-70
2023/01/28 06:12:14;;;;;;;0.50;0.05;;;19.30;58.90;;;;;;5041522;28;20092;-70
2023/01/28 06:14:42;;;;;;;0.60;0.10;;;19.30;58.80;;;;;;5030630;28;20050;-70
2023/01/28 06:17:09;;;;;;;1.05;0.60;;;19.30;58.80;;;;;;5032356;28;20057;-70
2023/01/28 06:19:36;;;;;;;0.88;0.55;;;19.30;58.80;;;;;;5030850;28;20045;-70
2023/01/28 06:22:04;;;;;;;0.60;0.20;;;19.40;58.70;;;;;;5031963;28;20383;-70
2023/01/28 06:24:31;;;;;;;0.73;0.10;;;19.40;58.70;;;;;;5031073;28;20490;-70
2023/01/28 06:26:58;;;;;;;0.73;0.52;;;19.50;58.70;;;;;;5032004;28;20046;-70
2023/01/28 06:29:25;;;;;;;0.30;0.10;;;19.50;58.80;;;;;;5033549;28;20052;-70
2023/01/28 06:31:52;;;;;;;0.93;0.10;;;19.50;58.70;;;;;;5032048;28;20442;-70
2023/01/28 06:34:19;;;;;;;1.08;0.10;;;19.50;58.60;;;;;;5031032;28;20635;-70
2023/01/28 06:36:46;;;;;;;1.05;0.50;;;19.50;58.60;;;;;;5032047;28;20056;-70
2023/01/28 06:39:14;;;;;;;0.77;0.50;;;19.60;58.60;;;;;;5031865;28;20052;-70
2023/01/28 06:41:41;;;;;;;0.90;0.00;;;19.60;58.50;;;;;;5030274;28;20099;-70
2023/01/28 06:44:08;;;;;;;0.95;0.65;;;19.60;59.20;;;;;;5043721;28;20049;-70
2023/01/28 06:46:35;;;;;;;0.57;0.10;;;19.70;58.50;;;;;;5030896;28;20486;-69
2023/01/28 06:49:02;;;;;;;0.88;0.50;;;19.70;58.50;;;;;;5033201;28;20091;-70
2023/01/28 06:51:29;;;;;;;0.60;0.40;;;19.70;58.50;;;;;;5050817;28;20049;-70
2023/01/28 06:53:56;;;;;;;0.50;0.50;;;19.70;58.50;;;;;;5050699;28;20049;-70
2023/01/28 06:56:24;;;;;;;0.63;0.10;;;19.70;58.40;;;;;;5051440;28;20448;-70
2023/01/28 06:58:51;;;;;;;0.90;0.70;;;19.80;58.40;;;;;;5051516;28;20061;-70
2023/01/28 07:01:18;;;;;;;0.50;0.03;;;19.80;58.40;;;;;;5048399;28;20122;-70
2023/01/28 07:03:45;;;;;;;0.98;0.63;;;19.80;58.30;;;;;;5046596;28;20057;-70
2023/01/28 07:06:12;;;;;;;1.10;0.55;;;19.80;58.30;;;;;;5031132;28;20061;-70
2023/01/28 07:08:40;;;;;;;0.70;0.50;;;19.80;58.20;;;;;;5031063;28;20482;-70
2023/01/28 07:11:07;;;;;;;0.60;0.40;;;19.90;58.30;;;;;;5034054;28;20049;-70
2023/01/28 07:13:35;;;;;;;0.70;0.43;;;19.90;58.20;;;;;;5031592;28;20045;-70
2023/01/28 07:16:03;;;;;;;0.90;0.75;;;19.90;58.30;;;;;;5042607;28;20046;-70
2023/01/28 07:18:30;;;;;;;0.77;0.63;;;19.90;58.20;;;;;;5034145;28;20072;-70
2023/01/28 07:20:57;;;;;;;0.80;0.63;;;19.90;58.30;;;;;;5049860;28;20053;-70
2023/01/28 07:23:24;;;;;;;0.63;0.50;;;19.90;58.30;;;;;;5051418;28;20049;-69
2023/01/28 07:25:51;;;;;;;1.17;0.65;;;19.90;58.30;;;;;;5050221;28;20041;-70
2023/01/28 07:28:20;;;;;;;0.70;0.50;;;19.80;58.30;;;;;;5047842;28;20052;-70
2023/01/28 07:30:50;;;;;;;0.40;0.10;;;19.80;58.40;;;;;;5049773;28;20484;-70
2023/01/28 07:33:17;;;;;;;0.70;0.50;;;19.70;58.50;;;;;;5049122;28;20045;-70
2023/01/28 07:35:44;;;;;;;1.05;0.60;;;19.70;58.50;;;;;;5043705;28;20064;-70
2023/01/28 07:38:12;;;;;;;0.75;0.47;;;19.70;58.60;;;;;;5039038;28;20064;-70
2023/01/28 07:40:39;;;;;;;0.60;0.60;;;19.60;58.70;;;;;;5049179;28;20044;-70
2023/01/28 07:43:07;;;;;;;0.73;0.40;;;19.50;59.40;;;;;;5047774;28;20053;-70
2023/01/28 07:45:33;;;;;;;0.82;0.60;;;19.50;58.90;;;;;;5034287;28;20146;-70
2023/01/28 07:48:04;;;;;;;1.17;0.10;;;19.50;59.00;;;;;;5031091;28;20057;-70
2023/01/28 07:50:33;;;;;;;0.50;0.10;;;19.40;59.00;;;;;;5029792;28;20053;-70
2023/01/28 07:53:03;;;;;;;0.80;0.50;;;19.30;59.50;;;;;;5031000;28;20481;-70
2023/01/28 07:55:30;;;;;;;;;;;19.30;59.20;;;;;;5031023;28;20457;-70
2023/01/28 07:57:58;;;;;;;0.38;0.00;;;19.30;59.00;;;;;;5030862;28;19971;-70
2023/01/28 08:00:27;;;;;;;0.70;0.40;;;19.20;59.30;;;;;;5031916;28;20053;-70
2023/01/28 08:02:57;;;;;;;1.13;0.57;;;19.10;59.30;;;;;;5052822;28;20060;-70
2023/01/28 08:05:26;;;;;;;0.50;0.00;;;19.10;59.40;;;;;;5041004;28;20057;-70
2023/01/28 08:07:54;;;;;;;0.40;0.10;;;19.00;59.40;;;;;;5033390;28;20075;-70
2023/01/28 08:10:21;;;;;;;0.80;0.50;;;19.00;59.60;;;;;;5032802;28;20057;-70
2023/01/28 08:12:52;;;;;;;0.88;0.52;;;18.90;59.60;;;;;;5033513;28;20066;-70
2023/01/28 08:15:19;;;;;;;0.80;0.52;;;18.90;59.70;;;;;;5046799;28;20132;-70
2023/01/28 08:17:46;;;;;;;0.90;0.52;;;18.90;60.30;;;;;;5052651;28;20588;-70
2023/01/28 08:20:13;;;;;;;0.20;0.00;;;18.80;59.70;;;;;;5054205;28;20110;-69
2023/01/28 08:22:42;;;;;;;0.68;0.60;;;18.80;59.80;;;;;;5048211;28;20049;-70
2023/01/28 08:25:09;;;;;;;0.45;0.15;;;18.80;59.80;;;;;;5034187;28;20441;-70
2023/01/28 08:27:36;;;;;;;0.30;0.00;;;18.80;59.80;;;;;;5046903;28;20060;-70
2023/01/28 08:30:03;;;;;;;0.35;0.03;;;18.80;59.80;;;;;;5052805;28;20049;-70
2023/01/28 08:32:30;;;;;;;0.73;0.40;;;18.80;59.80;;;;;;5048799;28;20061;-70
2023/01/28 08:34:57;;;;;;;1.20;0.50;;;18.80;59.80;;;;;;5034496;28;20045;-71
2023/01/28 08:37:24;;;;;;;0.52;0.45;;;18.80;59.80;;;;;;5035318;28;20175;-71
2023/01/28 08:39:53;;;;;;;0.77;0.65;;;18.80;59.70;;;;;;5038325;28;20059;-71
2023/01/28 08:42:19;;;;;;;0.60;0.10;;;18.80;59.60;;;;;;5033245;28;20041;-71
2023/01/28 08:44:47;;;;;;;0.43;0.10;;;18.90;59.70;;;;;;5043302;28;20136;-71
2023/01/28 08:47:14;;;;;;;1.20;1.05;;;18.90;59.70;;;;;;5033667;28;20057;-71
2023/01/28 08:49:41;;;;;;;1.10;0.60;;;18.90;59.70;;;;;;5050132;28;20048;-72
2023/01/28 08:52:08;;;;;;;0.63;0.10;;;18.90;59.70;;;;;;5043300;28;20476;-71
2023/01/28 08:54:35;;;;;;;1.23;0.60;;;18.90;59.70;;;;;;5046049;28;20076;-71
2023/01/28 08:57:03;;;;;;;0.75;0.50;;;18.90;59.70;;;;;;5043486;28;20064;-73
2023/01/28 08:59:30;;;;;;;0.38;0.10;;;19.00;59.80;;;;;;5035468;28;20060;-72
2023/01/28 09:01:57;;;;;;;0.80;0.68;;;19.00;59.70;;;;;;5032641;28;20050;-72
2023/01/28 09:04:24;;;;;;;1.90;0.60;;;19.00;59.70;;;;;;5031672;28;20054;-74
2023/01/28 09:06:51;;;;;;;1.48;1.08;;;19.10;60.00;;;;;;5041119;28;20107;-71
2023/01/28 09:09:18;;;;;;;0.20;0.00;;;19.20;61.40;;;;;;5043352;28;20107;-70
2023/01/28 09:11:45;;;;;;;0.82;0.20;;;19.30;61.20;;;;;;5037837;28;20421;-72
2023/01/28 09:14:13;;;;;;;3.33;0.50;;;19.40;61.70;;;;;;5034209;28;20048;-68
2023/01/28 09:16:40;;;;;;;1.40;0.10;;;19.50;62.10;;;;;;5031087;28;20056;-69
2023/01/28 09:19:07;;;;;;;0.90;0.25;;;19.60;61.50;;;;;;5030875;28;20095;-71
2023/01/28 09:21:34;;;;;;;1.73;0.10;;;19.70;61.50;;;;;;5030840;28;20103;-73
2023/01/28 09:24:01;;;;;;;1.35;0.20;;;19.70;61.50;;;;;;5042856;28;20045;-70
2023/01/28 09:26:28;;;;;;;4.10;0.10;;;19.80;61.60;;;;;;5047938;28;20048;-69
2023/01/28 09:28:55;;;;;;;0.40;0.10;;;19.90;61.50;;;;;;5049944;28;20049;-68
2023/01/28 09:31:23;;;;;;;0.75;0.10;;;20.00;61.50;;;;;;5049286;28;20136;-68
2023/01/28 09:33:55;;;;;;;1.77;0.47;;;20.00;61.50;;;;;;5031749;28;20099;-69
2023/01/28 09:36:22;;;;;;;3.15;0.63;;;20.00;61.50;;;;;;5032122;28;20045;-68
2023/01/28 09:38:49;;;;;;;0.95;0.40;;;20.00;61.50;;;;;;5030677;28;20045;-72
2023/01/28 09:41:28;;;;;;;1.58;0.73;;;20.00;61.40;;;;;;5031848;28;20047;-69
2023/01/28 09:44:07;;;;;;;0.65;0.10;;;19.90;61.50;;;;;;5046703;28;20053;-69
2023/01/28 09:46:37;;;;;;;0.65;0.40;;;19.90;61.50;;;;;;5031923;28;20804;-69
2023/01/28 09:49:12;;;;;;;0.57;0.00;;;19.90;61.50;;;;;;5040602;28;20057;-69
2023/01/28 09:51:42;;;;;;;0.93;0.55;;;20.00;61.50;;;;;;5031447;28;20567;-69
2023/01/28 09:54:23;;;;;;;0.57;0.00;;;19.90;61.40;;;;;;5030296;28;20053;-69
2023/01/28 09:56:55;;;;;;;0.55;0.10;;;19.90;61.40;;;;;;5034685;28;20056;-71
2023/01/28 09:59:23;;;;;;;1.25;0.10;;;19.90;61.50;;;;;;5039963;28;20065;-70
2023/01/28 10:01:58;;;;;;;2.03;0.50;;;19.90;61.40;;;;;;5031226;28;20061;-69
2023/01/28 10:04:39;;;;;;;1.38;0.68;;;19.90;62.10;;;;;;5034991;28;20048;-70
2023/01/28 10:07:20;;;;;;;0.68;0.38;;;19.90;61.50;;;;;;5045787;28;20045;-70
2023/01/28 10:09:54;;;;;;;0.98;0.77;;;19.80;61.40;;;;;;5046399;28;20041;-70
2023/01/28 10:12:47;;;;;;;2.20;0.52;;;19.80;61.60;;;;;;5031053;28;20049;-70
2023/01/28 10:15:47;;;;;;;2.28;0.77;;;19.70;61.60;;;;;;5030753;28;20049;-68
2023/01/28 10:18:16;;;;;;;0.82;0.40;;;19.70;61.60;;;;;;5031031;28;20045;-71
2023/01/28 10:20:46;;;;;;;0.30;0.00;;;19.60;61.70;;;;;;5034207;28;20071;-69
2023/01/28 10:23:20;;;;;;;0.93;0.80;;;19.60;61.80;;;;;;5034122;28;20083;-69
2023/01/28 10:25:48;;;;;;;0.40;0.08;;;19.50;61.80;;;;;;5042232;28;20045;-67
2023/01/28 10:28:21;;;;;;;0.98;0.20;;;19.50;61.90;;;;;;5034643;28;20418;-69
2023/01/28 10:30:48;;;;;;;1.38;0.50;;;19.40;61.90;;;;;;5036236;28;20068;-69
2023/01/28 10:33:22;;;;;;;0.43;0.10;;;19.40;62.00;;;;;;5032789;28;20494;-68
2023/01/28 10:35:49;;;;;;;1.75;0.50;;;19.40;62.60;;;;;;5030502;28;20490;-67
2023/01/28 10:38:20;;;;;;;0.50;0.32;;;19.30;62.00;;;;;;5031530;28;20190;-69
2023/01/28 10:40:47;;;;;;;1.85;0.10;;;19.30;62.10;;;;;;5030688;28;20282;-69
2023/01/28 10:43:16;;;;;;;0.40;0.15;;;19.30;62.20;;;;;;5037985;28;20133;-69
2023/01/28 10:45:54;;;;;;;0.60;0.40;;;19.20;62.20;;;;;;5030545;28;20088;-68
2023/01/28 10:48:24;;;;;;;0.40;0.00;;;19.20;62.20;;;;;;5030896;28;20041;-69
2023/01/28 10:50:53;;;;;;;0.80;0.52;;;19.20;62.80;;;;;;5029365;28;20041;-68
2023/01/28 10:53:20;;;;;;;0.70;0.10;;;19.20;62.20;;;;;;5038497;28;20049;-68
2023/01/28 10:55:51;;;;;;;0.93;0.03;;;19.20;62.20;;;;;;5048588;28;20061;-73
2023/01/28 10:58:21;;;;;;;0.88;0.10;;;19.20;62.20;;;;;;5033683;28;20784;-70
2023/01/28 11:00:53;;;;;;;1.20;0.00;;;19.20;62.10;;;;;;5033403;28;20057;-69
2023/01/28 11:03:26;;;;;;;1.50;0.40;;;19.20;62.20;;;;;;5041942;28;20565;-68
2023/01/28 11:05:54;;;;;;;0.63;0.50;;;19.20;62.10;;;;;;5028781;28;20536;-67
2023/01/28 11:08:23;;;;;;;0.93;0.00;;;19.20;62.20;;;;;;5030649;28;20057;-67
2023/01/28 11:10:51;;;;;;;1.10;0.55;;;19.20;62.20;;;;;;5039890;28;20055;-69
2023/01/28 11:13:20;;;;;;;0.50;0.10;;;19.10;62.20;;;;;;5039933;28;20068;-67
2023/01/28 11:15:49;;;;;;;0.90;0.50;;;19.10;62.30;;;;;;5031222;28;20044;-68
2023/01/28 11:18:19;;;;;;;1.17;0.10;;;19.10;62.30;;;;;;5036906;28;20041;-68
2023/01/28 11:20:54;;;;;;;0.70;0.45;;;19.10;62.40;;;;;;5045768;28;20044;-68
2023/01/28 11:23:24;;;;;;;0.70;0.35;;;19.10;62.50;;;;;;5040326;28;20041;-68
2023/01/28 11:26:02;;;;;;;1.88;0.50;;;19.00;62.40;;;;;;5042078;28;20047;-68
2023/01/28 11:28:30;;;;;;;0.43;0.00;;;19.00;62.50;;;;;;5031007;28;20132;-70
2023/01/28 11:31:00;;;;;;;1.20;0.65;;;19.00;62.40;;;;;;5035173;28;20041;-68
2023/01/28 11:33:32;;;;;;;0.77;0.50;;;19.00;62.50;;;;;;5031417;28;20053;-72
2023/01/28 11:36:08;;;;;;;0.60;0.10;;;18.90;62.50;;;;;;5039270;28;20506;-69
2023/01/28 11:38:35;;;;;;;2.33;0.05;;;18.90;62.50;;;;;;5033538;28;20065;-70
2023/01/28 11:41:02;;;;;;;0.50;0.10;;;18.90;62.50;;;;;;5033545;28;20382;-70
2023/01/28 11:43:30;;;;;;;0.90;0.40;;;18.90;62.50;;;;;;5036987;28;20045;-70
2023/01/28 11:46:07;;;;;;;0.63;0.10;;;18.90;62.50;;;;;;5034846;28;20056;-69
2023/01/28 11:48:40;;;;;;;0.80;0.50;;;18.90;63.20;;;;;;5043626;28;20044;-67
2023/01/28 11:51:21;;;;;;;0.52;0.00;;;18.80;62.50;;;;;;5051468;28;20497;-68
2023/01/28 11:54:19;;;;;;;0.80;0.45;;;18.80;62.50;;;;;;5039213;28;20049;-73
2023/01/28 11:57:02;;;;;;;1.45;0.10;;;18.80;62.60;;;;;;5021462;28;20065;-73
2023/01/28 11:59:47;;;;;;;0.60;0.10;;;18.80;62.60;;;;;;5036270;28;20100;-72
2023/01/28 12:02:30;;;;;;;1.02;0.20;;;18.70;62.50;;;;;;5044888;28;20076;-72
2023/01/28 12:05:16;;;;;;;3.45;0.20;;;18.70;62.50;;;;;;5039973;28;20049;-73
2023/01/28 12:07:50;;;;;;;1.48;0.52;;;18.70;62.50;;;;;;5033529;28;20060;-73
2023/01/28 12:10:24;;;;;;;1.65;0.30;;;18.70;62.50;;;;;;5033775;28;20049;-72
2023/01/28 12:13:07;;;;;;;1.27;0.00;;;18.70;62.50;;;;;;5033215;28;20093;-72
2023/01/28 12:16:00;;;;;;;4.65;0.35;;;18.70;62.40;;;;;;5041389;28;20056;-73
2023/01/28 12:19:03;;;;;;;0.77;0.43;;;18.70;62.40;;;;;;5042677;28;20063;-73
2023/01/28 12:21:41;;;;;;;2.60;0.00;;;18.80;62.40;;;;;;5041499;28;20049;-73
2023/01/28 12:24:19;;;;;;;3.92;0.10;;;18.80;62.40;;;;;;5050561;28;20383;-72
2023/01/28 12:26:52;;;;;;;2.05;0.10;;;18.80;62.30;;;;;;5043879;28;20048;-69
2023/01/28 12:29:30;;;;;;;1.83;0.95;;;18.90;62.20;;;;;;5045512;28;20060;-68
2023/01/28 12:32:23;;;;;;;1.20;0.13;;;18.90;62.20;;;;;;5033908;28;20398;-69
2023/01/28 12:35:22;;;;;;;1.58;0.45;;;19.00;62.20;;;;;;5033199;28;20151;-69
2023/01/28 12:38:01;;;;;;;2.58;0.50;;;19.10;62.20;;;;;;5036844;28;20103;-68
2023/01/28 12:40:52;;;;;;;2.03;0.50;;;19.20;62.00;;;;;;5034026;28;20048;-72
2023/01/28 12:43:25;;;;;;;1.90;0.50;;;19.30;62.00;;;;;;5040539;28;20049;-69
2023/01/28 12:45:56;;;;;;;1.60;0.10;;;19.40;61.70;;;;;;5034593;28;20064;-72
2023/01/28 12:48:30;;;;;;;0.73;0.00;;;19.50;61.60;;;;;;5042504;28;20071;-72
2023/01/28 12:51:03;;;;;;;0.93;0.10;;;19.70;61.60;;;;;;5049659;28;20405;-73
2023/01/28 12:53:38;;;;;;;1.95;0.03;;;19.80;61.40;;;;;;5032806;28;20087;-73
2023/01/28 12:56:14;;;;;;;2.75;0.10;;;19.90;61.40;;;;;;5045704;28;20405;-73
2023/01/28 12:58:47;;;;;;;0.63;0.00;;;20.00;61.30;;;;;;5039468;28;20077;-73
2023/01/28 13:01:21;;;;;;;3.10;0.10;;;20.10;61.20;;;;;;5047081;28;20053;-74
2023/01/28 13:03:56;;;;;;;0.85;0.10;;;20.10;61.20;;;;;;5046851;28;20045;-73
2023/01/28 13:06:28;;;;;;;0.40;0.00;;;20.10;61.10;;;;;;5036519;28;20061;-73
2023/01/28 13:09:01;;;;;;;2.70;0.52;;;20.20;61.10;;;;;;5035523;28;20129;-73
2023/01/28 13:11:35;;;;;;;2.20;0.40;;;20.20;61.10;;;;;;5045228;28;20048;-72
2023/01/28 13:14:04;;;;;;;0.50;0.10;;;20.20;61.10;;;;;;5050204;28;20120;-73
2023/01/28 13:16:31;;;;;;;1.52;0.28;;;20.20;61.10;;;;;;5045055;28;20045;-73
2023/01/28 13:19:07;;;;;;;1.10;0.50;;;20.20;61.20;;;;;;5047698;28;20421;-72
2023/01/28 13:21:36;;;;;;;1.35;0.57;;;20.10;61.10;;;;;;5052723;28;20049;-72
2023/01/28 13:24:07;;;;;;;0.90;0.55;;;20.10;61.20;;;;;;5052160;28;20095;-73
2023/01/28 13:26:43;;;;;;;1.75;0.30;;;20.00;61.20;;;;;;5052239;28;20052;-72
2023/01/28 13:29:31;;;;;;;0.50;0.00;;;20.00;61.30;;;;;;5042164;28;20059;-73
2023/01/28 13:31:59;;;;;;;;;;;19.90;61.30;;;;;;5053445;28;20052;-73